sensor_id;sensor_type;location;lat;lon;timestamp;temperature;humidity
21244;DHT22;10780;50.942;4.028;2022-07-29T00:01:06;19.50;99.90
21244;DHT22;10780;50.942;4.028;2022-07-29T00:03:31;19.50;99.90
21244;DHT22;10780;50.942;4.028;2022-07-29T00:05:57;19.50;99.90
21244;DHT22;10780;50.942;4.028;2022-07-29T00:08:23;19.50;99.90
21244;DHT22;10780;50.942;4.028;2022-07-29T00:10:48;19.50;99.90
21244;DHT22;10780;50.942;4.028;2022-07-29T00:13:14;19.50;99.90
21244;DHT22;10780;50.942;4.028;2022-07-29T00:15:40;19.50;99.90
21244;DHT22;10780;50.942;4.028;2022-07-29T00:18:05;19.50;99.90
21244;DHT22;10780;50.942;4.028;2022-07-29T00:20:31;19.50;99.90
21244;DHT22;10780;50.942;4.028;2022-07-29T00:22:57;19.60;99.90
21244;DHT22;10780;50.942;4.028;2022-07-29T00:25:23;19.60;99.90
21244;DHT22;10780;50.942;4.028;2022-07-29T00:27:48;19.50;99.90
21244;DHT22;10780;50.942;4.028;2022-07-29T00:30:14;19.40;99.90
21244;DHT22;10780;50.942;4.028;2022-07-29T00:32:40;19.30;99.90
21244;DHT22;10780;50.942;4.028;2022-07-29T00:35:06;19.40;99.90
21244;DHT22;10780;50.942;4.028;2022-07-29T00:37:51;19.30;99.90
21244;DHT22;10780;50.942;4.028;2022-07-29T00:40:17;19.30;99.90
21244;DHT22;10780;50.942;4.028;2022-07-29T00:42:46;19.20;99.90
21244;DHT22;10780;50.942;4.028;2022-07-29T00:45:13;19.10;99.90
21244;DHT22;10780;50.942;4.028;2022-07-29T00:47:39;19.10;99.90
21244;DHT22;10780;50.942;4.028;2022-07-29T00:50:06;19.00;99.90
21244;DHT22;10780;50.942;4.028;2022-07-29T00:52:34;19.00;99.90
21244;DHT22;10780;50.942;4.028;2022-07-29T00:55:02;18.90;99.90
21244;DHT22;10780;50.942;4.028;2022-07-29T00:57:28;18.80;99.90
21244;DHT22;10780;50.942;4.028;2022-07-29T00:59:53;18.70;99.90
21244;DHT22;10780;50.942;4.028;2022-07-29T01:02:19;18.80;99.90
21244;DHT22;10780;50.942;4.028;2022-07-29T01:04:45;18.70;99.90
21244;DHT22;10780;50.942;4.028;2022-07-29T01:07:11;18.60;99.90
21244;DHT22;10780;50.942;4.028;2022-07-29T01:09:37;18.50;99.90
21244;DHT22;10780;50.942;4.028;2022-07-29T01:12:04;18.60;99.90
21244;DHT22;10780;50.942;4.028;2022-07-29T01:14:30;18.60;99.90
21244;DHT22;10780;50.942;4.028;2022-07-29T01:17:02;18.60;99.90
21244;DHT22;10780;50.942;4.028;2022-07-29T01:22:49;18.30;99.90
21244;DHT22;10780;50.942;4.028;2022-07-29T01:31:02;18.40;99.90
21244;DHT22;10780;50.942;4.028;2022-07-29T01:33:31;18.30;99.90
21244;DHT22;10780;50.942;4.028;2022-07-29T01:36:36;18.10;99.90
21244;DHT22;10780;50.942;4.028;2022-07-29T01:39:32;18.00;99.90
21244;DHT22;10780;50.942;4.028;2022-07-29T01:44:39;17.70;99.90
21244;DHT22;10780;50.942;4.028;2022-07-29T01:47:13;17.80;99.90
21244;DHT22;10780;50.942;4.028;2022-07-29T01:49:46;17.70;99.90
21244;DHT22;10780;50.942;4.028;2022-07-29T01:52:20;17.70;99.90
21244;DHT22;10780;50.942;4.028;2022-07-29T01:54:53;17.70;99.90
21244;DHT22;10780;50.942;4.028;2022-07-29T01:57:27;17.60;99.90
21244;DHT22;10780;50.942;4.028;2022-07-29T01:59:56;17.70;99.90
21244;DHT22;10780;50.942;4.028;2022-07-29T02:02:23;17.80;99.90
21244;DHT22;10780;50.942;4.028;2022-07-29T02:04:50;17.80;99.90
21244;DHT22;10780;50.942;4.028;2022-07-29T02:07:20;17.80;99.90
21244;DHT22;10780;50.942;4.028;2022-07-29T02:09:47;17.80;99.90
21244;DHT22;10780;50.942;4.028;2022-07-29T02:12:16;17.80;99.90
21244;DHT22;10780;50.942;4.028;2022-07-29T02:14:45;17.80;99.90
21244;DHT22;10780;50.942;4.028;2022-07-29T02:17:13;17.80;99.90
21244;DHT22;10780;50.942;4.028;2022-07-29T02:19:43;17.60;99.90
21244;DHT22;10780;50.942;4.028;2022-07-29T02:22:10;17.70;99.90
21244;DHT22;10780;50.942;4.028;2022-07-29T02:24:38;17.60;99.90
21244;DHT22;10780;50.942;4.028;2022-07-29T02:27:06;17.60;99.90
21244;DHT22;10780;50.942;4.028;2022-07-29T02:29:33;17.40;99.90
21244;DHT22;10780;50.942;4.028;2022-07-29T02:32:01;17.40;99.90
21244;DHT22;10780;50.942;4.028;2022-07-29T02:34:28;17.30;99.90
21244;DHT22;10780;50.942;4.028;2022-07-29T02:36:56;17.30;99.90
21244;DHT22;10780;50.942;4.028;2022-07-29T02:39:23;17.40;99.90
21244;DHT22;10780;50.942;4.028;2022-07-29T02:42:01;17.30;99.90
21244;DHT22;10780;50.942;4.028;2022-07-29T02:44:27;17.30;99.90
21244;DHT22;10780;50.942;4.028;2022-07-29T02:52:18;17.20;99.90
21244;DHT22;10780;50.942;4.028;2022-07-29T02:54:59;17.00;99.90
21244;DHT22;10780;50.942;4.028;2022-07-29T02:57:51;17.00;99.90
21244;DHT22;10780;50.942;4.028;2022-07-29T03:00:19;17.00;99.90
21244;DHT22;10780;50.942;4.028;2022-07-29T03:02:50;17.00;99.90
21244;DHT22;10780;50.942;4.028;2022-07-29T03:05:19;17.00;99.90
21244;DHT22;10780;50.942;4.028;2022-07-29T03:07:55;17.00;99.90
21244;DHT22;10780;50.942;4.028;2022-07-29T03:10:23;16.90;99.90
21244;DHT22;10780;50.942;4.028;2022-07-29T03:12:50;16.80;99.90
21244;DHT22;10780;50.942;4.028;2022-07-29T03:15:17;16.60;99.90
21244;DHT22;10780;50.942;4.028;2022-07-29T03:17:43;16.60;99.90
21244;DHT22;10780;50.942;4.028;2022-07-29T03:20:10;16.50;99.90
21244;DHT22;10780;50.942;4.028;2022-07-29T03:22:41;16.40;99.90
21244;DHT22;10780;50.942;4.028;2022-07-29T03:25:10;16.40;99.90
21244;DHT22;10780;50.942;4.028;2022-07-29T03:27:36;16.40;99.90
21244;DHT22;10780;50.942;4.028;2022-07-29T03:30:02;16.40;99.90
21244;DHT22;10780;50.942;4.028;2022-07-29T03:32:27;16.40;99.90
21244;DHT22;10780;50.942;4.028;2022-07-29T03:34:53;16.30;99.90
21244;DHT22;10780;50.942;4.028;2022-07-29T03:37:18;16.30;99.90
21244;DHT22;10780;50.942;4.028;2022-07-29T03:39:45;16.40;99.90
21244;DHT22;10780;50.942;4.028;2022-07-29T03:42:15;16.40;99.90
21244;DHT22;10780;50.942;4.028;2022-07-29T03:44:44;16.50;99.90
21244;DHT22;10780;50.942;4.028;2022-07-29T03:47:11;16.60;99.90
21244;DHT22;10780;50.942;4.028;2022-07-29T03:49:40;16.60;99.90
21244;DHT22;10780;50.942;4.028;2022-07-29T03:52:06;16.60;99.90
21244;DHT22;10780;50.942;4.028;2022-07-29T03:54:31;16.50;99.90
21244;DHT22;10780;50.942;4.028;2022-07-29T03:56:59;16.40;99.90
21244;DHT22;10780;50.942;4.028;2022-07-29T03:59:27;16.30;99.90
21244;DHT22;10780;50.942;4.028;2022-07-29T04:01:53;16.30;99.90
21244;DHT22;10780;50.942;4.028;2022-07-29T04:04:21;16.20;99.90
21244;DHT22;10780;50.942;4.028;2022-07-29T04:06:47;16.10;99.90
21244;DHT22;10780;50.942;4.028;2022-07-29T04:09:12;16.00;99.90
21244;DHT22;10780;50.942;4.028;2022-07-29T04:11:39;16.00;99.90
21244;DHT22;10780;50.942;4.028;2022-07-29T04:14:05;15.90;99.90
21244;DHT22;10780;50.942;4.028;2022-07-29T04:16:32;15.90;99.90
21244;DHT22;10780;50.942;4.028;2022-07-29T04:18:58;15.80;99.90
21244;DHT22;10780;50.942;4.028;2022-07-29T04:21:23;15.80;99.90
21244;DHT22;10780;50.942;4.028;2022-07-29T04:23:49;15.90;99.90
21244;DHT22;10780;50.942;4.028;2022-07-29T04:26:19;15.80;99.90
21244;DHT22;10780;50.942;4.028;2022-07-29T04:28:45;15.70;99.90
21244;DHT22;10780;50.942;4.028;2022-07-29T04:31:12;15.60;99.90
21244;DHT22;10780;50.942;4.028;2022-07-29T04:33:38;15.70;99.90
21244;DHT22;10780;50.942;4.028;2022-07-29T04:36:04;15.70;99.90
21244;DHT22;10780;50.942;4.028;2022-07-29T04:38:30;15.80;99.90
21244;DHT22;10780;50.942;4.028;2022-07-29T04:40:55;15.80;99.90
21244;DHT22;10780;50.942;4.028;2022-07-29T04:43:22;15.90;99.90
21244;DHT22;10780;50.942;4.028;2022-07-29T04:45:48;16.00;99.90
21244;DHT22;10780;50.942;4.028;2022-07-29T04:48:13;16.20;99.90
21244;DHT22;10780;50.942;4.028;2022-07-29T04:50:39;16.40;99.90
21244;DHT22;10780;50.942;4.028;2022-07-29T04:53:06;16.60;99.90
21244;DHT22;10780;50.942;4.028;2022-07-29T04:55:32;16.80;99.90
21244;DHT22;10780;50.942;4.028;2022-07-29T04:57:58;16.90;99.90
21244;DHT22;10780;50.942;4.028;2022-07-29T05:00:23;16.90;99.90
21244;DHT22;10780;50.942;4.028;2022-07-29T05:02:49;16.80;99.90
21244;DHT22;10780;50.942;4.028;2022-07-29T05:05:15;16.90;99.90
21244;DHT22;10780;50.942;4.028;2022-07-29T05:07:41;16.90;99.90
21244;DHT22;10780;50.942;4.028;2022-07-29T05:10:07;17.00;99.90
21244;DHT22;10780;50.942;4.028;2022-07-29T05:12:33;17.10;99.90
21244;DHT22;10780;50.942;4.028;2022-07-29T05:14:58;17.10;99.90
21244;DHT22;10780;50.942;4.028;2022-07-29T05:17:24;17.20;99.90
21244;DHT22;10780;50.942;4.028;2022-07-29T05:19:50;17.20;99.90
21244;DHT22;10780;50.942;4.028;2022-07-29T05:22:17;17.30;99.90
21244;DHT22;10780;50.942;4.028;2022-07-29T05:24:43;17.30;99.90
21244;DHT22;10780;50.942;4.028;2022-07-29T05:27:09;17.30;99.90
21244;DHT22;10780;50.942;4.028;2022-07-29T05:29:35;17.20;99.90
21244;DHT22;10780;50.942;4.028;2022-07-29T05:32:00;17.40;99.90
21244;DHT22;10780;50.942;4.028;2022-07-29T05:34:26;17.30;99.90
21244;DHT22;10780;50.942;4.028;2022-07-29T05:36:52;17.30;99.90
21244;DHT22;10780;50.942;4.028;2022-07-29T05:39:18;17.20;99.90
21244;DHT22;10780;50.942;4.028;2022-07-29T05:41:43;16.90;99.90
21244;DHT22;10780;50.942;4.028;2022-07-29T05:44:09;16.80;99.90
21244;DHT22;10780;50.942;4.028;2022-07-29T05:46:34;16.90;99.90
21244;DHT22;10780;50.942;4.028;2022-07-29T05:49:00;17.10;99.90
21244;DHT22;10780;50.942;4.028;2022-07-29T05:51:26;17.10;99.90
21244;DHT22;10780;50.942;4.028;2022-07-29T05:53:52;17.10;99.90
21244;DHT22;10780;50.942;4.028;2022-07-29T05:56:17;17.00;99.90
21244;DHT22;10780;50.942;4.028;2022-07-29T05:58:43;17.10;99.90
21244;DHT22;10780;50.942;4.028;2022-07-29T06:01:09;17.20;99.90
21244;DHT22;10780;50.942;4.028;2022-07-29T06:03:34;17.10;99.90
21244;DHT22;10780;50.942;4.028;2022-07-29T06:06:00;17.20;99.90
21244;DHT22;10780;50.942;4.028;2022-07-29T06:08:25;17.20;99.90
21244;DHT22;10780;50.942;4.028;2022-07-29T06:10:51;17.20;99.90
21244;DHT22;10780;50.942;4.028;2022-07-29T06:13:16;17.30;99.90
21244;DHT22;10780;50.942;4.028;2022-07-29T06:15:43;17.30;99.90
21244;DHT22;10780;50.942;4.028;2022-07-29T06:18:08;17.50;99.90
21244;DHT22;10780;50.942;4.028;2022-07-29T06:20:35;17.50;99.90
21244;DHT22;10780;50.942;4.028;2022-07-29T06:23:01;17.70;99.90
21244;DHT22;10780;50.942;4.028;2022-07-29T06:25:29;17.60;99.90
21244;DHT22;10780;50.942;4.028;2022-07-29T06:27:56;17.70;99.90
21244;DHT22;10780;50.942;4.028;2022-07-29T06:30:21;17.80;99.90
21244;DHT22;10780;50.942;4.028;2022-07-29T06:32:47;17.90;99.90
21244;DHT22;10780;50.942;4.028;2022-07-29T06:35:13;18.00;99.90
21244;DHT22;10780;50.942;4.028;2022-07-29T06:37:39;18.10;99.90
21244;DHT22;10780;50.942;4.028;2022-07-29T06:40:04;18.20;99.90
21244;DHT22;10780;50.942;4.028;2022-07-29T06:42:49;18.30;99.90
21244;DHT22;10780;50.942;4.028;2022-07-29T06:45:14;18.50;99.90
21244;DHT22;10780;50.942;4.028;2022-07-29T06:47:41;18.50;99.90
21244;DHT22;10780;50.942;4.028;2022-07-29T06:50:07;18.60;99.90
21244;DHT22;10780;50.942;4.028;2022-07-29T06:52:36;18.70;99.90
21244;DHT22;10780;50.942;4.028;2022-07-29T06:55:02;18.80;99.90
21244;DHT22;10780;50.942;4.028;2022-07-29T06:57:28;18.90;99.90
21244;DHT22;10780;50.942;4.028;2022-07-29T06:59:55;19.10;99.90
21244;DHT22;10780;50.942;4.028;2022-07-29T07:02:21;19.40;99.90
21244;DHT22;10780;50.942;4.028;2022-07-29T07:04:46;19.70;99.90
21244;DHT22;10780;50.942;4.028;2022-07-29T07:07:12;19.80;99.90
21244;DHT22;10780;50.942;4.028;2022-07-29T07:09:37;19.80;99.90
21244;DHT22;10780;50.942;4.028;2022-07-29T07:12:03;19.70;99.90
21244;DHT22;10780;50.942;4.028;2022-07-29T07:14:29;19.80;99.90
21244;DHT22;10780;50.942;4.028;2022-07-29T07:16:54;20.00;99.90
21244;DHT22;10780;50.942;4.028;2022-07-29T07:19:20;19.90;99.90
21244;DHT22;10780;50.942;4.028;2022-07-29T07:21:46;20.00;99.90
21244;DHT22;10780;50.942;4.028;2022-07-29T07:24:11;20.00;99.90
21244;DHT22;10780;50.942;4.028;2022-07-29T07:26:37;19.80;99.90
21244;DHT22;10780;50.942;4.028;2022-07-29T07:29:05;19.90;99.90
21244;DHT22;10780;50.942;4.028;2022-07-29T07:31:31;19.80;99.90
21244;DHT22;10780;50.942;4.028;2022-07-29T07:33:56;19.90;99.90
21244;DHT22;10780;50.942;4.028;2022-07-29T07:36:22;20.30;99.90
21244;DHT22;10780;50.942;4.028;2022-07-29T07:38:48;20.60;99.90
21244;DHT22;10780;50.942;4.028;2022-07-29T07:41:14;20.90;99.90
21244;DHT22;10780;50.942;4.028;2022-07-29T07:43:40;21.00;99.90
21244;DHT22;10780;50.942;4.028;2022-07-29T07:46:05;20.90;99.90
21244;DHT22;10780;50.942;4.028;2022-07-29T07:48:31;20.70;99.90
21244;DHT22;10780;50.942;4.028;2022-07-29T07:50:56;20.70;99.90
21244;DHT22;10780;50.942;4.028;2022-07-29T07:53:22;20.80;99.90
21244;DHT22;10780;50.942;4.028;2022-07-29T07:55:48;21.00;99.90
21244;DHT22;10780;50.942;4.028;2022-07-29T07:58:13;21.00;99.90
21244;DHT22;10780;50.942;4.028;2022-07-29T08:00:39;21.00;99.90
21244;DHT22;10780;50.942;4.028;2022-07-29T08:03:04;20.90;99.90
21244;DHT22;10780;50.942;4.028;2022-07-29T08:05:30;21.00;99.90
21244;DHT22;10780;50.942;4.028;2022-07-29T08:07:56;21.10;99.90
21244;DHT22;10780;50.942;4.028;2022-07-29T08:10:21;21.20;99.90
21244;DHT22;10780;50.942;4.028;2022-07-29T08:13:07;21.40;99.90
21244;DHT22;10780;50.942;4.028;2022-07-29T08:15:33;21.30;99.90
21244;DHT22;10780;50.942;4.028;2022-07-29T08:17:58;21.30;99.90
21244;DHT22;10780;50.942;4.028;2022-07-29T08:20:24;21.40;99.90
21244;DHT22;10780;50.942;4.028;2022-07-29T08:22:50;21.20;99.90
21244;DHT22;10780;50.942;4.028;2022-07-29T08:25:16;21.00;99.90
21244;DHT22;10780;50.942;4.028;2022-07-29T08:27:48;21.20;99.90
21244;DHT22;10780;50.942;4.028;2022-07-29T08:30:14;21.40;99.90
21244;DHT22;10780;50.942;4.028;2022-07-29T08:32:40;21.30;99.90
21244;DHT22;10780;50.942;4.028;2022-07-29T08:35:05;21.30;99.90
21244;DHT22;10780;50.942;4.028;2022-07-29T08:37:31;21.20;99.90
21244;DHT22;10780;50.942;4.028;2022-07-29T08:39:57;21.10;99.90
21244;DHT22;10780;50.942;4.028;2022-07-29T08:42:22;21.00;99.90
21244;DHT22;10780;50.942;4.028;2022-07-29T08:44:48;21.10;99.90
21244;DHT22;10780;50.942;4.028;2022-07-29T08:47:14;21.30;99.90
21244;DHT22;10780;50.942;4.028;2022-07-29T08:49:40;21.20;99.90
21244;DHT22;10780;50.942;4.028;2022-07-29T08:52:05;21.50;99.90
21244;DHT22;10780;50.942;4.028;2022-07-29T08:54:32;21.70;99.90
21244;DHT22;10780;50.942;4.028;2022-07-29T08:56:58;21.80;99.90
21244;DHT22;10780;50.942;4.028;2022-07-29T08:59:27;21.90;99.90
21244;DHT22;10780;50.942;4.028;2022-07-29T09:01:53;21.90;99.90
21244;DHT22;10780;50.942;4.028;2022-07-29T09:04:20;21.90;99.90
21244;DHT22;10780;50.942;4.028;2022-07-29T09:06:51;22.10;99.90
21244;DHT22;10780;50.942;4.028;2022-07-29T09:09:17;22.00;99.90
21244;DHT22;10780;50.942;4.028;2022-07-29T09:11:43;22.00;99.90
21244;DHT22;10780;50.942;4.028;2022-07-29T09:14:11;22.00;99.90
21244;DHT22;10780;50.942;4.028;2022-07-29T09:16:45;22.20;99.90
21244;DHT22;10780;50.942;4.028;2022-07-29T09:19:22;22.40;99.90
21244;DHT22;10780;50.942;4.028;2022-07-29T09:21:48;22.50;99.90
21244;DHT22;10780;50.942;4.028;2022-07-29T09:27:00;22.40;99.90
21244;DHT22;10780;50.942;4.028;2022-07-29T09:29:26;22.40;99.90
21244;DHT22;10780;50.942;4.028;2022-07-29T09:31:53;22.30;99.90
21244;DHT22;10780;50.942;4.028;2022-07-29T09:34:27;22.30;99.90
21244;DHT22;10780;50.942;4.028;2022-07-29T09:36:54;22.30;99.90
21244;DHT22;10780;50.942;4.028;2022-07-29T09:39:32;22.30;99.90
21244;DHT22;10780;50.942;4.028;2022-07-29T09:42:02;22.50;99.90
21244;DHT22;10780;50.942;4.028;2022-07-29T09:44:43;22.70;99.90
21244;DHT22;10780;50.942;4.028;2022-07-29T09:47:08;22.60;99.90
21244;DHT22;10780;50.942;4.028;2022-07-29T09:49:36;22.90;99.90
21244;DHT22;10780;50.942;4.028;2022-07-29T09:52:09;22.90;99.90
21244;DHT22;10780;50.942;4.028;2022-07-29T09:54:36;22.80;99.90
21244;DHT22;10780;50.942;4.028;2022-07-29T09:57:07;22.90;99.90
21244;DHT22;10780;50.942;4.028;2022-07-29T09:59:35;23.00;99.90
21244;DHT22;10780;50.942;4.028;2022-07-29T10:02:01;23.10;99.90
21244;DHT22;10780;50.942;4.028;2022-07-29T10:04:37;23.10;99.90
21244;DHT22;10780;50.942;4.028;2022-07-29T10:07:04;23.00;99.90
21244;DHT22;10780;50.942;4.028;2022-07-29T10:09:31;22.90;99.90
21244;DHT22;10780;50.942;4.028;2022-07-29T10:12:10;23.00;99.90
21244;DHT22;10780;50.942;4.028;2022-07-29T10:14:38;23.20;99.90
21244;DHT22;10780;50.942;4.028;2022-07-29T10:17:06;23.30;99.90
21244;DHT22;10780;50.942;4.028;2022-07-29T10:19:33;23.50;99.90
21244;DHT22;10780;50.942;4.028;2022-07-29T10:22:01;23.60;99.90
21244;DHT22;10780;50.942;4.028;2022-07-29T10:24:28;23.60;99.90
21244;DHT22;10780;50.942;4.028;2022-07-29T10:26:56;23.80;99.90
21244;DHT22;10780;50.942;4.028;2022-07-29T10:29:22;23.80;99.90
21244;DHT22;10780;50.942;4.028;2022-07-29T10:34:28;24.20;99.90
21244;DHT22;10780;50.942;4.028;2022-07-29T10:42:25;24.20;99.90
21244;DHT22;10780;50.942;4.028;2022-07-29T10:44:52;24.20;99.90
21244;DHT22;10780;50.942;4.028;2022-07-29T10:47:24;24.30;99.90
21244;DHT22;10780;50.942;4.028;2022-07-29T10:50:00;24.40;99.90
21244;DHT22;10780;50.942;4.028;2022-07-29T10:52:55;24.50;99.90
21244;DHT22;10780;50.942;4.028;2022-07-29T10:55:38;24.50;99.90
21244;DHT22;10780;50.942;4.028;2022-07-29T10:58:12;24.50;99.90
21244;DHT22;10780;50.942;4.028;2022-07-29T11:00:41;24.80;99.90
21244;DHT22;10780;50.942;4.028;2022-07-29T11:03:07;25.00;99.90
21244;DHT22;10780;50.942;4.028;2022-07-29T11:05:55;25.20;99.90
21244;DHT22;10780;50.942;4.028;2022-07-29T11:08:22;24.90;99.90
21244;DHT22;10780;50.942;4.028;2022-07-29T11:10:53;24.90;99.90
21244;DHT22;10780;50.942;4.028;2022-07-29T11:16:13;25.20;99.90
21244;DHT22;10780;50.942;4.028;2022-07-29T11:21:37;25.20;99.90
21244;DHT22;10780;50.942;4.028;2022-07-29T11:26:44;25.30;99.90
21244;DHT22;10780;50.942;4.028;2022-07-29T11:29:16;25.60;99.90
21244;DHT22;10780;50.942;4.028;2022-07-29T11:31:44;25.70;99.90
21244;DHT22;10780;50.942;4.028;2022-07-29T11:39:32;26.30;99.90
21244;DHT22;10780;50.942;4.028;2022-07-29T11:45:09;26.30;99.90
21244;DHT22;10780;50.942;4.028;2022-07-29T11:50:15;26.70;99.90
21244;DHT22;10780;50.942;4.028;2022-07-29T11:52:44;26.40;99.90
21244;DHT22;10780;50.942;4.028;2022-07-29T11:55:17;26.40;99.90
21244;DHT22;10780;50.942;4.028;2022-07-29T12:00:32;26.30;99.90
21244;DHT22;10780;50.942;4.028;2022-07-29T12:03:01;26.30;99.90
21244;DHT22;10780;50.942;4.028;2022-07-29T12:05:45;26.40;99.90
21244;DHT22;10780;50.942;4.028;2022-07-29T12:08:16;26.20;99.90
21244;DHT22;10780;50.942;4.028;2022-07-29T12:10:45;26.20;99.90
21244;DHT22;10780;50.942;4.028;2022-07-29T12:13:12;26.20;99.90
21244;DHT22;10780;50.942;4.028;2022-07-29T12:15:38;26.30;99.90
21244;DHT22;10780;50.942;4.028;2022-07-29T12:18:18;26.50;99.90
21244;DHT22;10780;50.942;4.028;2022-07-29T12:20:46;26.60;99.90
21244;DHT22;10780;50.942;4.028;2022-07-29T12:23:13;26.40;99.90
21244;DHT22;10780;50.942;4.028;2022-07-29T12:25:41;26.30;99.90
21244;DHT22;10780;50.942;4.028;2022-07-29T12:28:09;26.40;99.90
21244;DHT22;10780;50.942;4.028;2022-07-29T12:30:44;26.50;99.90
21244;DHT22;10780;50.942;4.028;2022-07-29T12:35:49;26.60;99.90
21244;DHT22;10780;50.942;4.028;2022-07-29T12:38:16;26.70;99.90
21244;DHT22;10780;50.942;4.028;2022-07-29T12:40:42;26.50;99.90
21244;DHT22;10780;50.942;4.028;2022-07-29T12:45:40;25.80;99.90
21244;DHT22;10780;50.942;4.028;2022-07-29T12:48:06;26.20;99.90
21244;DHT22;10780;50.942;4.028;2022-07-29T12:50:35;26.60;99.90
21244;DHT22;10780;50.942;4.028;2022-07-29T12:53:12;26.90;99.90
21244;DHT22;10780;50.942;4.028;2022-07-29T12:55:45;27.00;99.90
21244;DHT22;10780;50.942;4.028;2022-07-29T13:01:16;27.30;99.90
21244;DHT22;10780;50.942;4.028;2022-07-29T13:03:55;27.90;99.90
21244;DHT22;10780;50.942;4.028;2022-07-29T13:06:45;28.10;99.90
21244;DHT22;10780;50.942;4.028;2022-07-29T13:09:18;28.40;99.90
21244;DHT22;10780;50.942;4.028;2022-07-29T13:11:49;29.00;99.90
21244;DHT22;10780;50.942;4.028;2022-07-29T13:14:38;29.30;99.90
21244;DHT22;10780;50.942;4.028;2022-07-29T13:17:10;29.00;99.90
21244;DHT22;10780;50.942;4.028;2022-07-29T13:22:07;27.90;99.90
21244;DHT22;10780;50.942;4.028;2022-07-29T13:24:33;27.60;99.90
21244;DHT22;10780;50.942;4.028;2022-07-29T13:26:59;27.60;99.90
21244;DHT22;10780;50.942;4.028;2022-07-29T13:29:24;27.30;99.90
21244;DHT22;10780;50.942;4.028;2022-07-29T13:31:52;27.30;99.90
21244;DHT22;10780;50.942;4.028;2022-07-29T13:34:17;27.00;99.90
21244;DHT22;10780;50.942;4.028;2022-07-29T13:36:44;27.10;99.90
21244;DHT22;10780;50.942;4.028;2022-07-29T13:39:10;27.20;99.90
21244;DHT22;10780;50.942;4.028;2022-07-29T13:41:36;27.50;99.90
21244;DHT22;10780;50.942;4.028;2022-07-29T13:44:02;27.80;99.90
21244;DHT22;10780;50.942;4.028;2022-07-29T13:46:28;27.80;99.90
21244;DHT22;10780;50.942;4.028;2022-07-29T13:48:53;27.50;99.90
21244;DHT22;10780;50.942;4.028;2022-07-29T13:51:19;27.40;99.90
21244;DHT22;10780;50.942;4.028;2022-07-29T13:53:45;27.40;99.90
21244;DHT22;10780;50.942;4.028;2022-07-29T13:56:10;27.10;99.90
21244;DHT22;10780;50.942;4.028;2022-07-29T13:58:36;27.30;99.90
21244;DHT22;10780;50.942;4.028;2022-07-29T14:01:02;27.20;99.90
21244;DHT22;10780;50.942;4.028;2022-07-29T14:03:28;27.50;99.90
21244;DHT22;10780;50.942;4.028;2022-07-29T14:05:54;27.70;99.90
21244;DHT22;10780;50.942;4.028;2022-07-29T14:08:19;27.50;99.90
21244;DHT22;10780;50.942;4.028;2022-07-29T14:10:45;27.00;99.90
21244;DHT22;10780;50.942;4.028;2022-07-29T14:13:10;27.00;99.90
21244;DHT22;10780;50.942;4.028;2022-07-29T14:15:36;27.00;99.90
21244;DHT22;10780;50.942;4.028;2022-07-29T14:18:02;27.10;99.90
21244;DHT22;10780;50.942;4.028;2022-07-29T14:20:28;27.00;99.90
21244;DHT22;10780;50.942;4.028;2022-07-29T14:22:55;27.20;99.90
21244;DHT22;10780;50.942;4.028;2022-07-29T14:25:22;27.20;99.90
21244;DHT22;10780;50.942;4.028;2022-07-29T14:27:47;27.10;99.90
21244;DHT22;10780;50.942;4.028;2022-07-29T14:30:13;27.30;99.90
21244;DHT22;10780;50.942;4.028;2022-07-29T14:32:39;27.30;99.90
21244;DHT22;10780;50.942;4.028;2022-07-29T14:35:06;27.30;99.90
21244;DHT22;10780;50.942;4.028;2022-07-29T14:37:31;27.40;99.90
21244;DHT22;10780;50.942;4.028;2022-07-29T14:39:57;27.60;99.90
21244;DHT22;10780;50.942;4.028;2022-07-29T14:42:27;27.60;99.90
21244;DHT22;10780;50.942;4.028;2022-07-29T14:44:52;29.10;99.90
21244;DHT22;10780;50.942;4.028;2022-07-29T14:47:18;30.10;99.90
21244;DHT22;10780;50.942;4.028;2022-07-29T14:49:44;30.30;99.90
21244;DHT22;10780;50.942;4.028;2022-07-29T14:52:10;30.40;99.90
21244;DHT22;10780;50.942;4.028;2022-07-29T14:54:36;32.10;99.90
21244;DHT22;10780;50.942;4.028;2022-07-29T14:57:01;32.60;99.90
21244;DHT22;10780;50.942;4.028;2022-07-29T14:59:27;33.00;99.90
21244;DHT22;10780;50.942;4.028;2022-07-29T15:01:52;32.50;99.90
21244;DHT22;10780;50.942;4.028;2022-07-29T15:04:18;32.60;99.90
21244;DHT22;10780;50.942;4.028;2022-07-29T15:06:44;33.00;99.90
21244;DHT22;10780;50.942;4.028;2022-07-29T15:09:10;33.20;99.90
21244;DHT22;10780;50.942;4.028;2022-07-29T15:11:35;33.10;99.90
21244;DHT22;10780;50.942;4.028;2022-07-29T15:14:01;32.50;99.90
21244;DHT22;10780;50.942;4.028;2022-07-29T15:16:26;33.10;99.90
21244;DHT22;10780;50.942;4.028;2022-07-29T15:18:52;32.80;99.90
21244;DHT22;10780;50.942;4.028;2022-07-29T15:21:17;34.00;99.90
21244;DHT22;10780;50.942;4.028;2022-07-29T15:23:43;34.30;99.90
21244;DHT22;10780;50.942;4.028;2022-07-29T15:26:09;33.40;99.90
21244;DHT22;10780;50.942;4.028;2022-07-29T15:28:34;32.60;99.90
21244;DHT22;10780;50.942;4.028;2022-07-29T15:31:00;32.10;99.90
21244;DHT22;10780;50.942;4.028;2022-07-29T15:33:26;32.80;99.90
21244;DHT22;10780;50.942;4.028;2022-07-29T15:35:51;31.00;99.90
21244;DHT22;10780;50.942;4.028;2022-07-29T15:38:17;31.30;99.90
21244;DHT22;10780;50.942;4.028;2022-07-29T15:40:43;31.20;99.90
21244;DHT22;10780;50.942;4.028;2022-07-29T15:43:09;31.30;99.90
21244;DHT22;10780;50.942;4.028;2022-07-29T15:45:40;32.30;99.90
21244;DHT22;10780;50.942;4.028;2022-07-29T15:48:07;31.80;99.90
21244;DHT22;10780;50.942;4.028;2022-07-29T15:50:33;32.00;99.90
21244;DHT22;10780;50.942;4.028;2022-07-29T15:52:59;31.80;99.90
21244;DHT22;10780;50.942;4.028;2022-07-29T15:55:25;31.10;99.90
21244;DHT22;10780;50.942;4.028;2022-07-29T15:57:51;30.60;99.90
21244;DHT22;10780;50.942;4.028;2022-07-29T16:00:16;30.50;99.90
21244;DHT22;10780;50.942;4.028;2022-07-29T16:02:43;30.80;99.90
21244;DHT22;10780;50.942;4.028;2022-07-29T16:05:09;30.80;99.90
21244;DHT22;10780;50.942;4.028;2022-07-29T16:07:35;31.00;99.90
21244;DHT22;10780;50.942;4.028;2022-07-29T16:10:00;30.60;99.90
21244;DHT22;10780;50.942;4.028;2022-07-29T16:12:26;30.40;99.90
21244;DHT22;10780;50.942;4.028;2022-07-29T16:14:52;29.70;99.90
21244;DHT22;10780;50.942;4.028;2022-07-29T16:17:18;29.00;99.90
21244;DHT22;10780;50.942;4.028;2022-07-29T16:19:44;28.80;99.90
21244;DHT22;10780;50.942;4.028;2022-07-29T16:22:10;28.60;99.90
21244;DHT22;10780;50.942;4.028;2022-07-29T16:24:35;28.20;99.90
21244;DHT22;10780;50.942;4.028;2022-07-29T16:27:01;28.10;99.90
21244;DHT22;10780;50.942;4.028;2022-07-29T16:29:27;28.80;99.90
21244;DHT22;10780;50.942;4.028;2022-07-29T16:31:53;29.30;99.90
21244;DHT22;10780;50.942;4.028;2022-07-29T16:34:18;30.60;99.90